createdAt,value
2018-08-14T00:00:25.856Z,99.90
2018-08-14T00:02:54.005Z,99.90
2018-08-14T00:05:22.082Z,99.90
2018-08-14T00:07:50.179Z,99.90
2018-08-14T00:10:18.430Z,99.90
2018-08-14T00:12:46.478Z,99.90
2018-08-14T00:15:15.404Z,99.90
2018-08-14T00:17:44.380Z,99.90
2018-08-14T00:20:13.221Z,99.90
2018-08-14T00:22:41.310Z,99.90
2018-08-14T00:25:09.846Z,99.90
2018-08-14T00:27:38.762Z,99.90
2018-08-14T00:30:08.328Z,99.90
2018-08-14T00:32:36.389Z,99.90
2018-08-14T00:35:04.450Z,99.90
2018-08-14T00:37:32.505Z,99.90
2018-08-14T00:40:00.625Z,99.90
2018-08-14T00:42:28.931Z,99.90
2018-08-14T00:44:56.954Z,99.90
2018-08-14T00:47:25.036Z,99.90
2018-08-14T00:49:53.128Z,99.90
2018-08-14T00:52:21.184Z,99.90
2018-08-14T00:54:49.241Z,99.90
2018-08-14T00:57:17.339Z,99.90
2018-08-14T00:59:45.393Z,99.90
2018-08-14T01:02:13.441Z,99.90
2018-08-14T01:04:41.555Z,99.90
2018-08-14T01:07:09.605Z,99.90
2018-08-14T01:09:37.727Z,99.90
2018-08-14T01:12:05.761Z,99.90
2018-08-14T01:14:33.852Z,99.90
2018-08-14T01:17:01.969Z,99.90
2018-08-14T01:19:30.042Z,99.90
2018-08-14T01:21:58.105Z,99.90
2018-08-14T01:24:26.139Z,99.90
2018-08-14T01:26:54.252Z,99.90
2018-08-14T01:29:22.314Z,99.90
2018-08-14T01:31:50.700Z,99.90
2018-08-14T01:34:18.985Z,99.90
2018-08-14T01:36:47.275Z,99.90
2018-08-14T01:39:15.432Z,99.90
2018-08-14T01:41:43.521Z,99.90
2018-08-14T01:44:11.602Z,99.90
2018-08-14T01:46:40.486Z,99.90
2018-08-14T01:49:09.294Z,99.90
2018-08-14T01:51:37.755Z,99.90
2018-08-14T01:54:06.737Z,99.90
2018-08-14T01:56:34.788Z,99.90
2018-08-14T01:59:02.878Z,99.90
2018-08-14T02:01:31.101Z,99.90
2018-08-14T02:03:59.685Z,99.90
2018-08-14T02:06:27.970Z,99.90
2018-08-14T02:08:56.993Z,99.90
2018-08-14T02:11:25.090Z,99.90
2018-08-14T02:13:53.166Z,99.90
2018-08-14T02:16:21.216Z,99.90
2018-08-14T02:18:49.259Z,99.90
2018-08-14T02:21:17.293Z,99.90
2018-08-14T02:23:45.361Z,99.90
2018-08-14T02:26:13.429Z,99.90
2018-08-14T02:28:41.492Z,99.90
2018-08-14T02:31:09.530Z,99.90
2018-08-14T02:33:37.592Z,99.90
2018-08-14T02:36:05.663Z,99.90
2018-08-14T02:38:33.741Z,99.90
2018-08-14T02:41:01.816Z,99.90
2018-08-14T02:43:29.933Z,99.90
2018-08-14T02:45:58.037Z,99.90
2018-08-14T02:48:26.089Z,99.90
2018-08-14T02:50:54.154Z,99.90
2018-08-14T02:53:22.195Z,99.90
2018-08-14T02:55:50.253Z,99.90
2018-08-14T02:58:18.367Z,99.90
2018-08-14T03:00:46.437Z,99.90
2018-08-14T03:03:14.596Z,99.90
2018-08-14T03:05:42.622Z,99.90
2018-08-14T03:08:10.681Z,99.90
2018-08-14T03:10:38.755Z,99.90
2018-08-14T03:13:06.773Z,99.90
2018-08-14T03:15:34.821Z,99.90
2018-08-14T03:18:02.876Z,99.90
2018-08-14T03:20:30.902Z,99.90
2018-08-14T03:22:58.983Z,99.90
2018-08-14T03:25:27.016Z,99.90
2018-08-14T03:27:55.068Z,99.90
2018-08-14T03:30:23.133Z,99.90
2018-08-14T03:32:51.258Z,99.90
2018-08-14T03:35:19.328Z,99.90
2018-08-14T03:37:47.361Z,99.90
2018-08-14T03:40:18.498Z,99.90
2018-08-14T03:42:47.413Z,99.90
2018-08-14T03:45:15.578Z,99.90
2018-08-14T03:47:44.113Z,99.90
2018-08-14T03:50:12.889Z,99.90
2018-08-14T03:52:42.402Z,99.90
2018-08-14T03:55:12.022Z,99.90
2018-08-14T03:57:40.852Z,99.90
2018-08-14T04:00:09.921Z,99.90
2018-08-14T04:02:38.547Z,99.90
2018-08-14T04:05:08.077Z,99.90
2018-08-14T04:07:36.112Z,99.90
2018-08-14T04:10:04.423Z,99.90
2018-08-14T04:12:33.261Z,99.90
2018-08-14T04:15:02.047Z,99.90
2018-08-14T04:17:30.566Z,99.90
2018-08-14T04:20:01.750Z,99.90
2018-08-14T04:22:29.808Z,99.90
2018-08-14T04:24:57.846Z,99.90
2018-08-14T04:27:25.956Z,99.90
2018-08-14T04:29:54.002Z,99.90
2018-08-14T04:32:22.037Z,99.90
2018-08-14T04:34:50.108Z,99.90
2018-08-14T04:37:18.180Z,99.90
2018-08-14T04:39:46.329Z,99.90
2018-08-14T04:42:14.390Z,99.90
2018-08-14T04:44:42.473Z,99.90
2018-08-14T04:47:10.522Z,99.90
2018-08-14T04:49:38.572Z,99.90
2018-08-14T04:52:06.655Z,99.90
2018-08-14T04:54:34.727Z,99.90
2018-08-14T04:57:02.734Z,99.90
2018-08-14T04:59:30.804Z,99.90
2018-08-14T05:01:58.853Z,99.90
2018-08-14T05:04:26.929Z,99.90
2018-08-14T05:06:55.012Z,99.90
2018-08-14T05:09:23.084Z,99.90
2018-08-14T05:11:51.192Z,99.90
2018-08-14T05:14:19.234Z,99.90
2018-08-14T05:16:47.281Z,99.90
2018-08-14T05:19:15.318Z,99.90
2018-08-14T05:21:43.350Z,99.90
2018-08-14T05:24:11.398Z,99.90
2018-08-14T05:26:39.422Z,99.90
2018-08-14T05:29:07.465Z,99.90
2018-08-14T05:31:35.494Z,99.90
2018-08-14T05:34:03.532Z,99.90
2018-08-14T05:36:31.561Z,99.90
2018-08-14T05:38:59.639Z,99.90
2018-08-14T05:41:27.677Z,99.90
2018-08-14T05:43:55.782Z,99.90
2018-08-14T05:46:23.840Z,99.90
2018-08-14T05:48:51.925Z,99.90
2018-08-14T05:51:20.000Z,99.90
2018-08-14T05:53:48.026Z,99.90
2018-08-14T05:56:16.061Z,99.90
2018-08-14T05:58:44.111Z,99.90
2018-08-14T06:01:12.157Z,99.90
2018-08-14T06:03:40.210Z,99.90
2018-08-14T06:06:08.365Z,99.90
2018-08-14T06:08:36.403Z,99.90
2018-08-14T06:11:04.476Z,99.90
2018-08-14T06:13:32.583Z,99.90
2018-08-14T06:16:00.622Z,99.90
2018-08-14T06:18:28.681Z,99.90
2018-08-14T06:20:56.729Z,99.90
2018-08-14T06:23:24.782Z,99.90
2018-08-14T06:25:52.841Z,99.90
2018-08-14T06:28:20.884Z,99.90
2018-08-14T06:30:48.942Z,99.90
2018-08-14T06:33:17.002Z,99.90
2018-08-14T06:35:45.103Z,99.90
2018-08-14T06:38:13.156Z,99.90
2018-08-14T06:40:41.204Z,99.90
2018-08-14T06:43:09.349Z,99.90
2018-08-14T06:45:37.422Z,99.90
2018-08-14T06:48:06.072Z,99.90
2018-08-14T06:50:34.172Z,99.90
2018-08-14T06:53:02.237Z,99.90
2018-08-14T06:55:30.428Z,99.90
2018-08-14T06:57:58.490Z,99.90
2018-08-14T07:00:26.584Z,99.90
2018-08-14T07:02:54.676Z,99.90
2018-08-14T07:05:22.721Z,99.90
2018-08-14T07:07:50.944Z,99.90
2018-08-14T07:10:18.989Z,99.90
2018-08-14T07:12:47.016Z,99.90
2018-08-14T07:15:17.106Z,99.90
2018-08-14T07:17:45.454Z,99.90
2018-08-14T07:20:13.653Z,99.90
2018-08-14T07:22:42.925Z,99.90
2018-08-14T07:25:11.493Z,99.90
2018-08-14T07:27:39.515Z,99.90
2018-08-14T07:30:09.625Z,99.90
2018-08-14T07:32:37.697Z,99.90
2018-08-14T07:35:06.052Z,99.90
2018-08-14T07:37:34.501Z,99.90
2018-08-14T07:40:02.709Z,99.90
2018-08-14T07:42:30.781Z,99.90
2018-08-14T07:44:58.853Z,99.90
2018-08-14T07:47:26.906Z,99.90
2018-08-14T07:49:55.006Z,99.90
2018-08-14T07:52:23.177Z,99.90
2018-08-14T07:54:51.322Z,99.90
2018-08-14T07:59:53.921Z,99.90
2018-08-14T08:02:22.127Z,99.90
2018-08-14T08:04:50.409Z,99.90
2018-08-14T08:07:18.645Z,99.90
2018-08-14T08:09:46.680Z,99.90
2018-08-14T08:12:14.746Z,99.90
2018-08-14T08:14:42.765Z,99.90
2018-08-14T08:17:10.838Z,99.90
2018-08-14T08:19:38.879Z,99.90
2018-08-14T08:22:06.946Z,99.90
2018-08-14T08:24:35.097Z,99.90
2018-08-14T08:27:03.163Z,99.90
2018-08-14T08:29:31.282Z,99.90
2018-08-14T08:31:59.357Z,99.90
2018-08-14T08:34:27.399Z,99.90
2018-08-14T08:36:55.489Z,99.90
2018-08-14T08:39:23.610Z,99.90
2018-08-14T08:41:51.795Z,99.90
2018-08-14T08:44:19.921Z,99.90
2018-08-14T08:46:47.957Z,99.90
2018-08-14T08:49:16.091Z,99.90
2018-08-14T08:51:44.240Z,99.90
2018-08-14T08:54:12.308Z,99.90
2018-08-14T08:56:40.585Z,99.90
2018-08-14T08:59:08.629Z,99.90
2018-08-14T09:01:36.677Z,99.90
2018-08-14T09:04:04.806Z,99.90
2018-08-14T09:06:32.878Z,99.90
2018-08-14T09:09:00.977Z,99.90
2018-08-14T09:11:29.018Z,99.90
2018-08-14T09:13:57.061Z,99.90
2018-08-14T09:16:25.195Z,99.90
2018-08-14T09:18:53.235Z,99.90
2018-08-14T09:21:21.285Z,99.90
2018-08-14T09:23:49.393Z,99.90
2018-08-14T09:26:17.457Z,99.90
2018-08-14T09:28:45.495Z,99.90
2018-08-14T09:31:13.602Z,99.90
2018-08-14T09:33:41.673Z,99.90
2018-08-14T09:36:09.725Z,99.90
2018-08-14T09:38:37.821Z,99.90
2018-08-14T09:41:05.935Z,99.90
2018-08-14T09:43:33.939Z,99.90
2018-08-14T09:46:02.042Z,99.90
2018-08-14T09:48:30.163Z,99.90
2018-08-14T09:50:58.217Z,99.90
2018-08-14T09:53:26.281Z,99.90
2018-08-14T09:55:54.386Z,99.90
2018-08-14T09:58:22.412Z,99.90
2018-08-14T10:00:55.975Z,99.90
2018-08-14T10:03:29.692Z,99.90
2018-08-14T10:06:03.160Z,99.90
2018-08-14T10:08:31.193Z,99.90
2018-08-14T10:10:59.301Z,99.90
2018-08-14T10:13:27.339Z,99.90
2018-08-14T10:15:55.389Z,99.90
2018-08-14T10:18:25.925Z,99.90
2018-08-14T10:20:54.124Z,99.90
2018-08-14T10:23:23.251Z,99.90
2018-08-14T10:25:51.352Z,99.90
2018-08-14T10:28:20.681Z,99.90
2018-08-14T10:30:48.799Z,99.90
2018-08-14T10:33:16.845Z,99.90
2018-08-14T10:35:44.875Z,99.90
2018-08-14T10:38:12.946Z,99.90
2018-08-14T10:40:41.016Z,99.90
2018-08-14T10:43:09.246Z,99.90
2018-08-14T10:45:37.274Z,99.90
2018-08-14T10:48:05.331Z,99.90
2018-08-14T10:50:33.357Z,99.90
2018-08-14T10:53:01.446Z,99.90
2018-08-14T10:55:29.560Z,99.90
2018-08-14T10:57:57.612Z,99.90
2018-08-14T11:00:27.939Z,99.90
2018-08-14T11:02:56.162Z,99.90
2018-08-14T11:05:24.289Z,99.90
2018-08-14T11:07:52.986Z,99.90
2018-08-14T11:10:22.669Z,99.90
2018-08-14T11:12:50.940Z,99.90
2018-08-14T11:15:18.976Z,99.90
2018-08-14T11:17:47.092Z,99.90
2018-08-14T11:20:16.822Z,99.90
2018-08-14T11:22:45.694Z,99.90
2018-08-14T11:25:13.745Z,99.90
2018-08-14T11:27:41.838Z,99.90
2018-08-14T11:30:12.169Z,99.90
2018-08-14T11:32:40.209Z,99.90
2018-08-14T11:35:08.242Z,99.90
2018-08-14T11:37:36.388Z,99.90
2018-08-14T11:40:05.093Z,99.90
2018-08-14T11:42:33.144Z,99.90
2018-08-14T11:45:01.174Z,99.90
2018-08-14T11:47:29.288Z,99.90
2018-08-14T11:49:57.332Z,99.90
2018-08-14T11:52:25.432Z,99.90
2018-08-14T11:54:53.486Z,99.90
2018-08-14T11:57:21.630Z,99.90
2018-08-14T11:59:49.647Z,99.90
2018-08-14T12:02:17.713Z,99.90
2018-08-14T12:04:45.793Z,99.90
2018-08-14T12:07:13.862Z,99.90
2018-08-14T12:09:41.922Z,99.90
2018-08-14T12:12:10.000Z,99.90
2018-08-14T12:14:38.112Z,99.90
2018-08-14T12:17:06.118Z,99.90
2018-08-14T12:19:34.229Z,99.90
2018-08-14T12:22:02.302Z,99.90
2018-08-14T12:24:30.366Z,99.90
2018-08-14T12:26:58.433Z,99.90
2018-08-14T12:29:26.508Z,99.90
2018-08-14T12:31:54.546Z,99.90
2018-08-14T12:34:22.587Z,99.90
2018-08-14T12:36:50.632Z,99.90
2018-08-14T12:39:18.684Z,99.90
2018-08-14T12:41:46.722Z,99.90
2018-08-14T12:44:14.781Z,99.90
2018-08-14T12:46:42.918Z,99.90
2018-08-14T12:49:10.969Z,99.90
2018-08-14T12:51:39.030Z,99.90
2018-08-14T12:54:07.174Z,99.90
2018-08-14T12:56:35.240Z,99.90
2018-08-14T12:59:03.288Z,99.90
2018-08-14T13:01:31.394Z,99.90
2018-08-14T13:03:59.382Z,99.90
2018-08-14T13:06:27.400Z,99.90
2018-08-14T13:08:55.624Z,99.90
2018-08-14T13:11:24.366Z,99.90
2018-08-14T13:13:52.441Z,99.90
2018-08-14T13:16:20.490Z,99.90
2018-08-14T13:18:48.541Z,99.90
2018-08-14T13:21:16.569Z,99.90
2018-08-14T13:23:44.736Z,99.90
2018-08-14T13:26:12.785Z,99.90
2018-08-14T13:28:40.870Z,99.90
2018-08-14T13:31:08.936Z,97.70
2018-08-14T13:33:36.997Z,91.20
2018-08-14T13:36:05.089Z,88.70
2018-08-14T13:38:33.152Z,89.20
2018-08-14T13:41:01.184Z,91.40
2018-08-14T13:43:29.235Z,91.90
2018-08-14T13:45:57.268Z,91.00
2018-08-14T13:48:25.349Z,88.10
2018-08-14T13:50:53.402Z,85.60
2018-08-14T13:53:21.517Z,79.00
2018-08-14T13:55:49.501Z,75.30
2018-08-14T13:58:17.554Z,69.70
2018-08-14T14:00:45.591Z,65.70
2018-08-14T14:03:13.678Z,62.20
2018-08-14T14:05:41.748Z,63.50
2018-08-14T14:08:09.822Z,66.80
2018-08-14T14:10:37.897Z,71.60
2018-08-14T14:13:05.931Z,76.70
2018-08-14T14:15:33.982Z,81.70
2018-08-14T14:18:02.014Z,85.50
2018-08-14T14:20:31.007Z,90.80
2018-08-14T14:22:59.076Z,92.80
2018-08-14T14:25:27.115Z,94.20
2018-08-14T14:27:55.161Z,94.70
2018-08-14T14:30:23.594Z,95.30
2018-08-14T14:32:51.625Z,96.60
2018-08-14T14:35:19.745Z,97.40
2018-08-14T14:37:47.782Z,98.60
2018-08-14T14:40:18.069Z,99.70
2018-08-14T14:42:46.494Z,99.90
2018-08-14T14:45:15.105Z,99.90
2018-08-14T14:47:44.198Z,99.90
2018-08-14T14:50:12.291Z,99.90
2018-08-14T14:52:41.185Z,99.90
2018-08-14T14:55:10.395Z,99.90
2018-08-14T14:57:38.790Z,99.90
2018-08-14T15:00:07.633Z,99.90
2018-08-14T15:02:35.873Z,99.90
2018-08-14T15:05:04.479Z,99.90
2018-08-14T15:07:32.605Z,99.90
2018-08-14T15:10:00.673Z,99.90
2018-08-14T15:12:28.685Z,99.90
2018-08-14T15:14:56.792Z,99.00
2018-08-14T15:17:24.829Z,96.80
2018-08-14T15:19:52.954Z,92.30
2018-08-14T15:22:20.971Z,88.90
2018-08-14T15:24:49.076Z,78.00
2018-08-14T15:27:17.112Z,71.00
2018-08-14T15:29:45.183Z,62.80
2018-08-14T15:32:13.211Z,62.90
2018-08-14T15:34:41.320Z,60.20
2018-08-14T15:37:09.620Z,58.70
2018-08-14T15:39:37.717Z,58.50
2018-08-14T15:42:05.977Z,58.10
2018-08-14T15:44:34.090Z,60.00
2018-08-14T15:47:02.150Z,62.80
2018-08-14T15:49:30.331Z,67.50
2018-08-14T15:51:58.266Z,71.60
2018-08-14T15:54:26.337Z,75.30
2018-08-14T15:56:54.425Z,79.70
2018-08-14T15:59:22.493Z,83.20
2018-08-14T16:01:50.527Z,86.40
2018-08-14T16:04:19.461Z,88.60
2018-08-14T16:06:47.656Z,90.50
2018-08-14T16:09:17.076Z,91.30
2018-08-14T16:11:45.845Z,92.50
2018-08-14T16:14:14.005Z,93.90
2018-08-14T16:16:42.231Z,95.80
2018-08-14T16:19:11.088Z,99.40
2018-08-14T16:21:39.388Z,99.90
2018-08-14T16:24:07.589Z,99.90
2018-08-14T16:26:35.634Z,99.90
2018-08-14T16:29:03.978Z,99.90
2018-08-14T16:31:32.050Z,99.90
2018-08-14T16:34:00.131Z,99.90
2018-08-14T16:36:28.210Z,99.90
2018-08-14T16:38:56.249Z,99.90
2018-08-14T16:41:24.433Z,99.90
2018-08-14T16:43:52.473Z,99.90
2018-08-14T16:46:20.529Z,99.90
2018-08-14T16:48:48.662Z,99.90
2018-08-14T16:51:16.704Z,99.90
2018-08-14T16:53:47.138Z,99.90
2018-08-14T16:56:15.292Z,99.90
2018-08-14T16:58:43.364Z,99.90
2018-08-14T17:01:11.454Z,99.90
2018-08-14T17:03:39.555Z,99.90
2018-08-14T17:06:07.685Z,99.90
2018-08-14T17:08:35.746Z,99.90
2018-08-14T17:11:03.890Z,99.90
2018-08-14T17:13:32.004Z,99.90
2018-08-14T17:16:00.069Z,99.90
2018-08-14T17:18:28.185Z,99.90
2018-08-14T17:20:55.915Z,99.90
2018-08-14T17:23:23.967Z,99.90
2018-08-14T17:25:52.128Z,99.90
2018-08-14T17:28:20.164Z,99.90
2018-08-14T17:30:48.304Z,99.90
2018-08-14T17:33:16.368Z,99.90
2018-08-14T17:35:44.433Z,99.90
2018-08-14T17:38:12.529Z,99.90
2018-08-14T17:40:40.594Z,99.90
2018-08-14T17:43:08.733Z,99.90
2018-08-14T17:45:37.387Z,99.90
2018-08-14T17:48:05.730Z,99.90
2018-08-14T17:50:34.292Z,99.90
2018-08-14T17:53:02.403Z,99.90
2018-08-14T17:55:30.486Z,99.90
2018-08-14T17:57:58.672Z,99.90
2018-08-14T18:00:28.305Z,99.90
2018-08-14T18:02:57.895Z,99.90
2018-08-14T18:05:26.013Z,99.90
2018-08-14T18:07:54.101Z,99.90
2018-08-14T18:10:23.128Z,99.90
2018-08-14T18:12:51.168Z,99.90
2018-08-14T18:15:19.565Z,99.90
2018-08-14T18:17:47.729Z,99.90
2018-08-14T18:20:23.021Z,99.90
2018-08-14T18:22:51.077Z,99.90
2018-08-14T18:25:20.351Z,99.90
2018-08-14T18:27:48.971Z,99.90
2018-08-14T18:30:18.236Z,99.90
2018-08-14T18:32:46.327Z,99.90
2018-08-14T18:35:14.707Z,99.90
2018-08-14T18:37:43.407Z,99.90
2018-08-14T18:40:12.609Z,99.90
2018-08-14T18:42:40.766Z,99.90
2018-08-14T18:45:09.761Z,99.90
2018-08-14T18:47:37.917Z,99.90
2018-08-14T18:50:06.815Z,99.90
2018-08-14T18:52:35.278Z,99.90
2018-08-14T18:55:03.565Z,99.90
2018-08-14T18:57:31.605Z,99.90
2018-08-14T18:59:59.685Z,99.90
2018-08-14T19:02:27.765Z,99.90
2018-08-14T19:04:55.865Z,99.90
2018-08-14T19:07:24.027Z,99.90
2018-08-14T19:09:52.096Z,99.90
2018-08-14T19:12:20.581Z,99.90
2018-08-14T19:14:49.304Z,99.90
2018-08-14T19:17:17.473Z,99.90
2018-08-14T19:19:45.621Z,99.90
2018-08-14T19:22:13.665Z,99.90
2018-08-14T19:24:41.953Z,99.90
2018-08-14T19:27:10.038Z,99.90
2018-08-14T19:29:38.084Z,99.90
2018-08-14T19:32:06.287Z,99.90
2018-08-14T19:34:34.386Z,99.90
2018-08-14T19:37:02.562Z,99.90
2018-08-14T19:39:30.660Z,99.90
2018-08-14T19:41:58.868Z,99.90
2018-08-14T19:44:26.946Z,99.90
2018-08-14T19:46:56.438Z,99.90
2018-08-14T19:49:25.214Z,99.90
2018-08-14T19:51:53.274Z,99.90
2018-08-14T19:54:21.915Z,99.90
2018-08-14T19:56:49.948Z,99.90
2018-08-14T19:59:18.121Z,99.90
2018-08-14T20:01:46.129Z,99.90
2018-08-14T20:04:14.282Z,99.90
2018-08-14T20:06:42.361Z,99.90
2018-08-14T20:09:11.273Z,99.90
2018-08-14T20:11:39.363Z,99.90
2018-08-14T20:14:07.756Z,99.90
2018-08-14T20:16:40.800Z,99.90
2018-08-14T20:19:08.974Z,99.90
2018-08-14T20:21:37.457Z,99.90
2018-08-14T20:24:05.555Z,99.90
2018-08-14T20:26:33.624Z,99.90
2018-08-14T20:29:01.687Z,99.90
2018-08-14T20:31:29.870Z,99.90
2018-08-14T20:33:57.927Z,99.90
2018-08-14T20:36:25.964Z,99.90
2018-08-14T20:38:54.037Z,99.90
2018-08-14T20:41:22.095Z,99.90
2018-08-14T20:43:50.431Z,99.90
2018-08-14T20:46:18.501Z,99.90
2018-08-14T20:48:46.640Z,99.90
2018-08-14T20:51:14.693Z,99.90
2018-08-14T20:53:42.810Z,99.90
2018-08-14T20:56:10.977Z,99.90
2018-08-14T20:58:39.028Z,99.90
2018-08-14T21:01:07.080Z,99.90
2018-08-14T21:03:35.173Z,99.90
2018-08-14T21:06:03.214Z,99.90
2018-08-14T21:08:31.317Z,99.90
2018-08-14T21:10:59.396Z,99.90
2018-08-14T21:13:27.473Z,99.90
2018-08-14T21:16:01.166Z,99.90
2018-08-14T21:18:29.214Z,99.90
2018-08-14T21:20:57.253Z,99.90
2018-08-14T21:23:25.309Z,99.90
2018-08-14T21:25:53.473Z,99.90
2018-08-14T21:28:21.630Z,99.90
2018-08-14T21:30:49.834Z,99.90
2018-08-14T21:33:17.896Z,99.90
2018-08-14T21:35:45.997Z,99.90
2018-08-14T21:38:14.028Z,99.90
2018-08-14T21:40:42.131Z,99.90
2018-08-14T21:43:10.157Z,99.90
2018-08-14T21:45:38.290Z,99.90
2018-08-14T21:48:06.390Z,99.90
2018-08-14T21:50:34.396Z,99.90
2018-08-14T21:53:02.470Z,99.90
2018-08-14T21:55:30.551Z,99.90
2018-08-14T21:57:58.646Z,99.90
2018-08-14T22:01:01.771Z,99.90
2018-08-14T22:03:30.300Z,99.90
2018-08-14T22:05:58.606Z,99.90
2018-08-14T22:08:26.661Z,99.90
2018-08-14T22:10:54.711Z,99.90
2018-08-14T22:13:22.847Z,99.90
2018-08-14T22:15:51.098Z,99.90
2018-08-14T22:18:19.599Z,99.90
2018-08-14T22:20:47.692Z,99.90
2018-08-14T22:23:15.825Z,99.90
2018-08-14T22:25:43.900Z,99.90
2018-08-14T22:28:11.952Z,99.90
2018-08-14T22:30:40.074Z,99.90
2018-08-14T22:33:08.136Z,99.90
2018-08-14T22:35:36.298Z,99.90
2018-08-14T22:38:04.342Z,99.90
2018-08-14T22:40:32.470Z,99.90
2018-08-14T22:43:00.615Z,99.90
2018-08-14T22:45:35.486Z,99.90
2018-08-14T22:48:03.525Z,99.90
2018-08-14T22:50:31.574Z,99.90
2018-08-14T22:52:59.598Z,99.90
2018-08-14T22:55:27.693Z,99.90
2018-08-14T22:57:55.753Z,99.90
2018-08-14T23:00:23.805Z,99.90
2018-08-14T23:02:51.841Z,99.90
2018-08-14T23:05:19.913Z,99.90
2018-08-14T23:07:47.955Z,99.90
2018-08-14T23:10:16.037Z,99.90
2018-08-14T23:12:44.333Z,99.90
2018-08-14T23:15:13.126Z,99.90
2018-08-14T23:17:41.165Z,99.90
2018-08-14T23:20:10.713Z,99.90
2018-08-14T23:22:38.990Z,99.90
2018-08-14T23:25:07.421Z,99.90
2018-08-14T23:27:35.567Z,99.90
2018-08-14T23:30:04.257Z,99.90
2018-08-14T23:32:32.403Z,99.90
2018-08-14T23:35:00.484Z,99.90
2018-08-14T23:37:28.523Z,99.90
2018-08-14T23:39:56.613Z,99.90
2018-08-14T23:42:24.681Z,99.90
2018-08-14T23:44:52.757Z,99.90
2018-08-14T23:47:20.809Z,99.90
2018-08-14T23:49:48.905Z,99.90
2018-08-14T23:52:16.955Z,99.90
2018-08-14T23:54:44.987Z,99.90
2018-08-14T23:57:13.113Z,99.90
2018-08-14T23:59:41.218Z,99.90
